logo
Search for airport 
image banner adimage banner adimage banner ad
image banner ad

MRFL - Florencia

Located in San Carlos, Costa Rica

ICAO - MRFL, IATA - FMG

Data provided by Airmate  

General information

Coordinates: N10°22'54" W84°29'21"
Elevation is 270 feet MSL.
 
View others Airports in Guanacaste

Operational data

Special qualification required
Current time UTC:
Current local time:
Weather at : MROC - Juan Santamaria Intl ( 53 km )
METAR: MROC 241800Z 25008KT 210V290 9999 BKN025 SCT200 25/22 A3006 NOSIG
TAF: MROC 241725Z 2418/2518 24009KT 9999 FEW025 TX29/2419Z TN19/2511Z TEMPO 2419/2423 TSRA SCT015CB TEMPO 2423/2503 5000 BR BKN010 BECMG 2503/2506 09005KT
View NOTAMs / SUP AIP / TFR affecting this airport [VIEW]
Communications frequencies: [VIEW]

Runways:

RWY identifierQFULength (ft)Width (ft)SurfaceLDA (ft)
0500UNK
2300UNK

Airport contact information

Address: San Carlos Costa Rica

Satellite view of MRFL